Terminal Aerodrome Forecast
Issued by NWS

Home | Current Version | Previous Version | Text Only | Print | Product List | Glossary On
Versions: 1 2 3 4 5 6 7 8 9 10 11 12 13
232
FTUS45 KRIW 232324
TAFRKS
TAF
KRKS 232324Z 2400/2424 28011KT P6SM VCTS SCT060CB BKN120
     FM240200 26011KT P6SM VCSH SCT100 BKN150
     FM240400 22007KT P6SM SCT120
     FM241900 26010KT P6SM FEW120
     FM242100 28015G22KT P6SM SCT120=

USA.gov is the U.S. government's official web portal to all federal, state and local government web resources and services.